sensor_id;sensor_type;location;lat;lon;timestamp;pressure;altitude;pressure_sealevel;temperature;humidity
45255;BME280;30989;52.078;21.014;2023-04-09T00:00:42;165698.69;;;7.42;100.00
45255;BME280;30989;52.078;21.014;2023-04-09T00:03:08;165698.69;;;7.42;100.00
45255;BME280;30989;52.078;21.014;2023-04-09T00:05:40;165688.00;;;7.38;100.00
45255;BME280;30989;52.078;21.014;2023-04-09T00:08:06;165677.31;;;7.34;100.00
45255;BME280;30989;52.078;21.014;2023-04-09T00:10:31;165682.66;;;7.36;100.00
45255;BME280;30989;52.078;21.014;2023-04-09T00:12:57;165685.34;;;7.37;100.00
45255;BME280;30989;52.078;21.014;2023-04-09T00:15:22;165682.66;;;7.36;100.00
45255;BME280;30989;52.078;21.014;2023-04-09T00:17:48;165682.66;;;7.36;100.00
45255;BME280;30989;52.078;21.014;2023-04-09T00:20:13;165682.66;;;7.36;100.00
45255;BME280;30989;52.078;21.014;2023-04-09T00:22:38;165680.00;;;7.35;100.00
45255;BME280;30989;52.078;21.014;2023-04-09T00:25:04;165673.31;;;7.33;100.00
45255;BME280;30989;52.078;21.014;2023-04-09T00:27:30;165670.63;;;7.32;100.00
45255;BME280;30989;52.078;21.014;2023-04-09T00:29:56;165677.31;;;7.34;100.00
45255;BME280;30989;52.078;21.014;2023-04-09T00:32:21;165674.63;;;7.33;100.00
45255;BME280;30989;52.078;21.014;2023-04-09T00:34:47;165680.00;;;7.35;100.00
45255;BME280;30989;52.078;21.014;2023-04-09T00:37:12;165673.31;;;7.33;100.00
45255;BME280;30989;52.078;21.014;2023-04-09T00:39:38;165674.63;;;7.33;100.00
45255;BME280;30989;52.078;21.014;2023-04-09T00:42:03;165671.97;;;7.32;100.00
45255;BME280;30989;52.078;21.014;2023-04-09T00:44:29;165680.00;;;7.35;100.00
45255;BME280;30989;52.078;21.014;2023-04-09T00:46:55;165680.00;;;7.35;100.00
45255;BME280;30989;52.078;21.014;2023-04-09T00:49:22;165665.28;;;7.30;100.00
45255;BME280;30989;52.078;21.014;2023-04-09T00:51:50;165657.25;;;7.27;100.00
45255;BME280;30989;52.078;21.014;2023-04-09T00:54:16;165651.91;;;7.25;100.00
45255;BME280;30989;52.078;21.014;2023-04-09T00:56:42;165642.56;;;7.21;100.00
45255;BME280;30989;52.078;21.014;2023-04-09T00:59:08;165639.91;;;7.20;100.00
45255;BME280;30989;52.078;21.014;2023-04-09T01:01:33;165634.53;;;7.18;100.00
45255;BME280;30989;52.078;21.014;2023-04-09T01:03:59;165631.88;;;7.17;100.00
45255;BME280;30989;52.078;21.014;2023-04-09T01:06:33;165641.22;;;7.21;100.00
45255;BME280;30989;52.078;21.014;2023-04-09T01:11:47;165650.59;;;7.24;100.00
45255;BME280;30989;52.078;21.014;2023-04-09T01:15:17;165650.59;;;7.24;100.00
45255;BME280;30989;52.078;21.014;2023-04-09T01:17:43;165654.59;;;7.26;100.00
45255;BME280;30989;52.078;21.014;2023-04-09T01:20:13;165658.59;;;7.27;100.00
45255;BME280;30989;52.078;21.014;2023-04-09T01:22:56;165662.63;;;7.29;100.00
45255;BME280;30989;52.078;21.014;2023-04-09T01:28:26;165669.28;;;7.31;100.00
45255;BME280;30989;52.078;21.014;2023-04-09T01:31:00;165670.63;;;7.32;100.00
45255;BME280;30989;52.078;21.014;2023-04-09T01:33:28;165669.28;;;7.31;100.00
45255;BME280;30989;52.078;21.014;2023-04-09T01:35:55;165663.94;;;7.29;100.00
45255;BME280;30989;52.078;21.014;2023-04-09T01:38:22;165661.28;;;7.28;100.00
45255;BME280;30989;52.078;21.014;2023-04-09T01:40:48;165663.94;;;7.29;100.00
45255;BME280;30989;52.078;21.014;2023-04-09T01:43:15;165663.94;;;7.29;100.00
45255;BME280;30989;52.078;21.014;2023-04-09T01:45:43;165667.97;;;7.31;100.00
45255;BME280;30989;52.078;21.014;2023-04-09T01:48:11;165670.63;;;7.32;100.00
45255;BME280;30989;52.078;21.014;2023-04-09T01:50:37;165669.28;;;7.31;100.00
45255;BME280;30989;52.078;21.014;2023-04-09T01:53:02;165671.97;;;7.32;100.00
45255;BME280;30989;52.078;21.014;2023-04-09T01:55:28;165667.97;;;7.31;100.00
45255;BME280;30989;52.078;21.014;2023-04-09T01:57:53;165666.63;;;7.30;100.00
45255;BME280;30989;52.078;21.014;2023-04-09T02:00:19;165678.66;;;7.35;100.00
45255;BME280;30989;52.078;21.014;2023-04-09T02:03:09;165667.97;;;7.31;100.00
45255;BME280;30989;52.078;21.014;2023-04-09T02:05:40;165677.31;;;7.34;100.00
45255;BME280;30989;52.078;21.014;2023-04-09T02:08:11;165678.66;;;7.35;100.00
45255;BME280;30989;52.078;21.014;2023-04-09T02:10:37;165677.31;;;7.34;100.00
45255;BME280;30989;52.078;21.014;2023-04-09T02:13:05;165674.63;;;7.33;100.00
45255;BME280;30989;52.078;21.014;2023-04-09T02:15:35;165678.66;;;7.35;100.00
45255;BME280;30989;52.078;21.014;2023-04-09T02:18:03;165671.97;;;7.32;100.00
45255;BME280;30989;52.078;21.014;2023-04-09T02:20:28;165669.28;;;7.31;100.00
45255;BME280;30989;52.078;21.014;2023-04-09T02:22:55;165665.28;;;7.30;100.00
45255;BME280;30989;52.078;21.014;2023-04-09T02:25:21;165673.31;;;7.33;100.00
45255;BME280;30989;52.078;21.014;2023-04-09T02:27:47;165677.31;;;7.34;100.00
45255;BME280;30989;52.078;21.014;2023-04-09T02:30:12;165675.97;;;7.34;100.00
45255;BME280;30989;52.078;21.014;2023-04-09T02:32:38;165671.97;;;7.32;100.00
45255;BME280;30989;52.078;21.014;2023-04-09T02:35:03;165670.63;;;7.32;100.00
45255;BME280;30989;52.078;21.014;2023-04-09T02:37:29;165665.28;;;7.30;100.00
45255;BME280;30989;52.078;21.014;2023-04-09T02:39:55;165653.25;;;7.25;100.00
45255;BME280;30989;52.078;21.014;2023-04-09T02:42:20;165645.25;;;7.22;100.00
45255;BME280;30989;52.078;21.014;2023-04-09T02:44:46;165633.22;;;7.18;100.00
45255;BME280;30989;52.078;21.014;2023-04-09T02:47:13;165623.84;;;7.14;100.00
45255;BME280;30989;52.078;21.014;2023-04-09T02:49:38;165613.16;;;7.10;100.00
45255;BME280;30989;52.078;21.014;2023-04-09T02:52:04;165602.47;;;7.06;100.00
45255;BME280;30989;52.078;21.014;2023-04-09T02:54:29;165594.47;;;7.03;100.00
45255;BME280;30989;52.078;21.014;2023-04-09T02:56:55;165579.75;;;6.97;100.00
45255;BME280;30989;52.078;21.014;2023-04-09T02:59:20;165578.44;;;6.97;100.00
45255;BME280;30989;52.078;21.014;2023-04-09T03:01:46;165579.75;;;6.97;100.00
45255;BME280;30989;52.078;21.014;2023-04-09T03:04:11;165583.78;;;6.99;100.00
45255;BME280;30989;52.078;21.014;2023-04-09T03:06:37;165586.44;;;7.00;100.00
45255;BME280;30989;52.078;21.014;2023-04-09T03:09:02;165583.78;;;6.99;100.00
45255;BME280;30989;52.078;21.014;2023-04-09T03:11:28;165583.78;;;6.99;100.00
45255;BME280;30989;52.078;21.014;2023-04-09T03:13:53;165586.44;;;7.00;100.00
45255;BME280;30989;52.078;21.014;2023-04-09T03:16:19;165585.09;;;6.99;100.00
45255;BME280;30989;52.078;21.014;2023-04-09T03:18:45;165589.13;;;7.01;100.00
45255;BME280;30989;52.078;21.014;2023-04-09T03:21:10;165601.16;;;7.05;100.00
45255;BME280;30989;52.078;21.014;2023-04-09T03:23:43;165607.81;;;7.08;100.00
45255;BME280;30989;52.078;21.014;2023-04-09T03:26:08;165586.44;;;7.00;100.00
45255;BME280;30989;52.078;21.014;2023-04-09T03:28:41;165610.50;;;7.09;100.00
45255;BME280;30989;52.078;21.014;2023-04-09T03:31:07;165594.47;;;7.03;100.00
45255;BME280;30989;52.078;21.014;2023-04-09T03:33:35;165605.16;;;7.07;100.00
45255;BME280;30989;52.078;21.014;2023-04-09T03:36:01;165607.81;;;7.08;100.00
45255;BME280;30989;52.078;21.014;2023-04-09T03:38:40;165598.47;;;7.04;100.00
45255;BME280;30989;52.078;21.014;2023-04-09T03:41:13;165599.81;;;7.05;100.00
45255;BME280;30989;52.078;21.014;2023-04-09T03:43:39;165602.47;;;7.06;100.00
45255;BME280;30989;52.078;21.014;2023-04-09T03:46:15;165605.16;;;7.07;100.00
45255;BME280;30989;52.078;21.014;2023-04-09T03:48:44;165603.81;;;7.06;100.00
45255;BME280;30989;52.078;21.014;2023-04-09T03:51:11;165586.44;;;7.00;100.00
45255;BME280;30989;52.078;21.014;2023-04-09T03:53:37;165593.13;;;7.02;100.00
45255;BME280;30989;52.078;21.014;2023-04-09T03:56:05;165586.44;;;7.00;100.00
45255;BME280;30989;52.078;21.014;2023-04-09T03:58:33;165583.78;;;6.99;100.00
45255;BME280;30989;52.078;21.014;2023-04-09T04:00:59;165582.44;;;6.98;100.00
45255;BME280;30989;52.078;21.014;2023-04-09T04:03:35;165575.75;;;6.96;100.00
45255;BME280;30989;52.078;21.014;2023-04-09T04:06:24;165574.41;;;6.95;100.00
45255;BME280;30989;52.078;21.014;2023-04-09T04:09:05;165573.09;;;6.95;100.00
45255;BME280;30989;52.078;21.014;2023-04-09T04:11:42;165565.06;;;6.92;100.00
45255;BME280;30989;52.078;21.014;2023-04-09T04:14:08;165559.72;;;6.90;100.00
45255;BME280;30989;52.078;21.014;2023-04-09T04:16:34;165573.09;;;6.95;100.00
45255;BME280;30989;52.078;21.014;2023-04-09T04:19:01;165573.09;;;6.95;100.00
45255;BME280;30989;52.078;21.014;2023-04-09T04:21:29;165578.44;;;6.97;100.00
45255;BME280;30989;52.078;21.014;2023-04-09T04:23:59;165570.41;;;6.94;100.00
45255;BME280;30989;52.078;21.014;2023-04-09T04:26:27;165578.44;;;6.97;100.00
45255;BME280;30989;52.078;21.014;2023-04-09T04:28:52;165585.09;;;6.99;100.00
45255;BME280;30989;52.078;21.014;2023-04-09T04:31:42;165582.44;;;6.98;100.00
45255;BME280;30989;52.078;21.014;2023-04-09T04:34:07;165573.09;;;6.95;100.00
45255;BME280;30989;52.078;21.014;2023-04-09T04:36:35;165571.75;;;6.94;100.00
45255;BME280;30989;52.078;21.014;2023-04-09T04:39:01;165578.44;;;6.97;100.00
45255;BME280;30989;52.078;21.014;2023-04-09T04:41:32;165577.09;;;6.96;100.00
45255;BME280;30989;52.078;21.014;2023-04-09T04:44:18;165582.44;;;6.98;100.00
45255;BME280;30989;52.078;21.014;2023-04-09T04:46:45;165586.44;;;7.00;100.00
45255;BME280;30989;52.078;21.014;2023-04-09T04:49:10;165583.78;;;6.99;100.00
45255;BME280;30989;52.078;21.014;2023-04-09T04:51:43;165569.06;;;6.93;100.00
45255;BME280;30989;52.078;21.014;2023-04-09T04:54:11;165573.09;;;6.95;100.00
45255;BME280;30989;52.078;21.014;2023-04-09T04:56:38;165586.44;;;7.00;100.00
45255;BME280;30989;52.078;21.014;2023-04-09T04:59:13;165583.78;;;6.99;100.00
45255;BME280;30989;52.078;21.014;2023-04-09T05:02:00;165595.78;;;7.03;100.00
45255;BME280;30989;52.078;21.014;2023-04-09T05:04:30;165602.47;;;7.06;100.00
45255;BME280;30989;52.078;21.014;2023-04-09T05:06:57;165614.50;;;7.10;100.00
45255;BME280;30989;52.078;21.014;2023-04-09T05:09:24;165613.16;;;7.10;100.00
45255;BME280;30989;52.078;21.014;2023-04-09T05:12:08;165631.88;;;7.17;100.00
45255;BME280;30989;52.078;21.014;2023-04-09T05:14:33;165639.91;;;7.20;100.00
45255;BME280;30989;52.078;21.014;2023-04-09T05:16:59;165641.22;;;7.21;100.00
45255;BME280;30989;52.078;21.014;2023-04-09T05:19:31;165649.25;;;7.24;100.00
45255;BME280;30989;52.078;21.014;2023-04-09T05:22:00;165667.97;;;7.31;100.00
45255;BME280;30989;52.078;21.014;2023-04-09T05:24:26;165682.66;;;7.36;100.00
45255;BME280;30989;52.078;21.014;2023-04-09T05:26:51;165688.00;;;7.38;100.00
45255;BME280;30989;52.078;21.014;2023-04-09T05:29:17;165704.06;;;7.44;100.00
45255;BME280;30989;52.078;21.014;2023-04-09T05:31:42;165704.06;;;7.44;100.00
45255;BME280;30989;52.078;21.014;2023-04-09T05:34:16;165724.09;;;7.52;100.00
45255;BME280;30989;52.078;21.014;2023-04-09T05:36:47;165737.47;;;7.57;100.00
45255;BME280;30989;52.078;21.014;2023-04-09T05:39:13;165757.50;;;7.65;100.00
45255;BME280;30989;52.078;21.014;2023-04-09T05:41:38;165757.50;;;7.65;100.00
45255;BME280;30989;52.078;21.014;2023-04-09T05:44:24;165770.88;;;7.70;100.00
45255;BME280;30989;52.078;21.014;2023-04-09T05:46:54;165794.94;;;7.79;100.00
45255;BME280;30989;52.078;21.014;2023-04-09T05:49:26;165796.28;;;7.80;100.00
45255;BME280;30989;52.078;21.014;2023-04-09T05:51:55;165825.69;;;7.91;100.00
45255;BME280;30989;52.078;21.014;2023-04-09T05:54:25;165837.72;;;7.95;100.00
45255;BME280;30989;52.078;21.014;2023-04-09T05:56:50;165841.75;;;7.97;100.00
45255;BME280;30989;52.078;21.014;2023-04-09T05:59:17;165851.09;;;8.00;100.00
45255;BME280;30989;52.078;21.014;2023-04-09T06:01:42;165873.84;;;8.09;100.00
45255;BME280;30989;52.078;21.014;2023-04-09T06:04:08;165876.50;;;8.10;100.00
45255;BME280;30989;52.078;21.014;2023-04-09T06:06:33;165928.66;;;8.30;100.00
45255;BME280;30989;52.078;21.014;2023-04-09T06:08:59;165966.16;;;8.44;100.00
45255;BME280;30989;52.078;21.014;2023-04-09T06:11:24;165994.25;;;8.55;100.00
45255;BME280;30989;52.078;21.014;2023-04-09T06:13:51;166018.31;;;8.64;100.00
45255;BME280;30989;52.078;21.014;2023-04-09T06:16:16;166062.47;;;8.81;100.00
45255;BME280;30989;52.078;21.014;2023-04-09T06:18:42;166102.59;;;8.96;100.00
45255;BME280;30989;52.078;21.014;2023-04-09T06:21:08;166136.06;;;9.09;100.00
45255;BME280;30989;52.078;21.014;2023-04-09T06:23:35;166172.19;;;9.22;100.00
45255;BME280;30989;52.078;21.014;2023-04-09T06:26:00;166201.63;;;9.33;100.00
45255;BME280;30989;52.078;21.014;2023-04-09T06:28:29;166243.13;;;9.49;100.00
45255;BME280;30989;52.078;21.014;2023-04-09T06:30:56;166239.09;;;9.48;100.00
45255;BME280;30989;52.078;21.014;2023-04-09T06:33:22;166261.84;;;9.56;100.00
45255;BME280;30989;52.078;21.014;2023-04-09T06:35:47;166281.94;;;9.64;100.00
45255;BME280;30989;52.078;21.014;2023-04-09T06:38:14;166304.69;;;9.73;100.00
45255;BME280;30989;52.078;21.014;2023-04-09T06:40:40;166319.41;;;9.78;100.00
45255;BME280;30989;52.078;21.014;2023-04-09T06:43:06;166303.34;;;9.72;100.00
45255;BME280;30989;52.078;21.014;2023-04-09T06:45:40;166288.63;;;9.66;100.00
45255;BME280;30989;52.078;21.014;2023-04-09T06:48:06;166289.97;;;9.67;100.00
45255;BME280;30989;52.078;21.014;2023-04-09T06:50:31;166304.69;;;9.73;100.00
45255;BME280;30989;52.078;21.014;2023-04-09T06:52:57;166327.44;;;9.81;100.00
45255;BME280;30989;52.078;21.014;2023-04-09T06:55:22;166332.81;;;9.83;100.00
45255;BME280;30989;52.078;21.014;2023-04-09T06:57:48;166358.22;;;9.93;100.00
45255;BME280;30989;52.078;21.014;2023-04-09T07:00:13;166415.81;;;10.15;100.00
45255;BME280;30989;52.078;21.014;2023-04-09T07:02:39;166480.13;;;10.39;100.00
45255;BME280;30989;52.078;21.014;2023-04-09T07:05:04;166512.31;;;10.51;100.00
45255;BME280;30989;52.078;21.014;2023-04-09T07:07:30;166512.31;;;10.51;100.00
45255;BME280;30989;52.078;21.014;2023-04-09T07:09:56;166544.47;;;10.63;100.00
45255;BME280;30989;52.078;21.014;2023-04-09T07:12:31;166596.72;;;10.83;100.00
45255;BME280;30989;52.078;21.014;2023-04-09T07:14:58;166618.16;;;10.91;100.00
45255;BME280;30989;52.078;21.014;2023-04-09T07:17:24;166611.44;;;10.89;100.00
45255;BME280;30989;52.078;21.014;2023-04-09T07:19:49;166622.16;;;10.93;100.00
45255;BME280;30989;52.078;21.014;2023-04-09T07:22:21;166666.38;;;11.10;100.00
45255;BME280;30989;52.078;21.014;2023-04-09T07:24:47;166718.63;;;11.29;100.00
45255;BME280;30989;52.078;21.014;2023-04-09T07:27:22;166764.19;;;11.47;100.00
45255;BME280;30989;52.078;21.014;2023-04-09T07:29:48;166793.66;;;11.58;100.00
45255;BME280;30989;52.078;21.014;2023-04-09T07:32:14;166837.91;;;11.75;100.00
45255;BME280;30989;52.078;21.014;2023-04-09T07:34:40;166863.41;;;11.84;100.00
45255;BME280;30989;52.078;21.014;2023-04-09T07:37:06;166914.34;;;12.04;100.00
45255;BME280;30989;52.078;21.014;2023-04-09T07:39:31;166957.25;;;12.20;100.00
45255;BME280;30989;52.078;21.014;2023-04-09T07:41:57;167010.88;;;12.40;100.00
45255;BME280;30989;52.078;21.014;2023-04-09T07:44:22;167051.09;;;12.55;100.00
45255;BME280;30989;52.078;21.014;2023-04-09T07:46:48;167075.25;;;12.65;100.00
45255;BME280;30989;52.078;21.014;2023-04-09T07:49:14;167111.47;;;12.78;100.00
45255;BME280;30989;52.078;21.014;2023-04-09T07:51:40;167130.25;;;12.85;100.00
45255;BME280;30989;52.078;21.014;2023-04-09T07:54:06;167131.56;;;12.86;100.00
45255;BME280;30989;52.078;21.014;2023-04-09T07:56:31;167149.00;;;12.93;100.00
45255;BME280;30989;52.078;21.014;2023-04-09T07:58:57;167142.31;;;12.90;100.00
45255;BME280;30989;52.078;21.014;2023-04-09T08:01:22;167143.66;;;12.90;100.00
45255;BME280;30989;52.078;21.014;2023-04-09T08:03:50;167128.91;;;12.85;100.00
45255;BME280;30989;52.078;21.014;2023-04-09T08:06:15;167115.47;;;12.80;100.00
45255;BME280;30989;52.078;21.014;2023-04-09T08:08:42;167126.22;;;12.84;100.00
45255;BME280;30989;52.078;21.014;2023-04-09T08:11:08;167158.41;;;12.96;100.00
45255;BME280;30989;52.078;21.014;2023-04-09T08:13:33;167135.59;;;12.87;100.00
45255;BME280;30989;52.078;21.014;2023-04-09T08:16:02;167135.59;;;12.87;100.00
45255;BME280;30989;52.078;21.014;2023-04-09T08:18:28;167174.50;;;13.02;100.00
45255;BME280;30989;52.078;21.014;2023-04-09T08:20:54;167248.34;;;13.30;100.00
45255;BME280;30989;52.078;21.014;2023-04-09T08:23:20;167314.06;;;13.55;100.00
45255;BME280;30989;52.078;21.014;2023-04-09T08:25:46;167288.59;;;13.45;98.26
45255;BME280;30989;52.078;21.014;2023-04-09T08:28:11;167249.69;;;13.31;96.35
45255;BME280;30989;52.078;21.014;2023-04-09T08:30:39;167193.28;;;13.09;98.11
45255;BME280;30989;52.078;21.014;2023-04-09T08:33:05;167146.34;;;12.91;96.32
45255;BME280;30989;52.078;21.014;2023-04-09T08:35:31;167150.34;;;12.93;98.59
45255;BME280;30989;52.078;21.014;2023-04-09T08:37:58;167187.91;;;13.07;99.40
45255;BME280;30989;52.078;21.014;2023-04-09T08:40:24;167225.53;;;13.21;98.39
45255;BME280;30989;52.078;21.014;2023-04-09T08:42:54;167268.47;;;13.38;97.15
45255;BME280;30989;52.078;21.014;2023-04-09T08:45:21;167263.09;;;13.36;97.25
45255;BME280;30989;52.078;21.014;2023-04-09T08:47:48;167241.63;;;13.28;94.33
45255;BME280;30989;52.078;21.014;2023-04-09T08:50:15;167201.31;;;13.12;96.17
45255;BME280;30989;52.078;21.014;2023-04-09T08:52:41;167181.22;;;13.05;96.50
45255;BME280;30989;52.078;21.014;2023-04-09T08:55:07;167175.84;;;13.03;96.40
45255;BME280;30989;52.078;21.014;2023-04-09T08:57:39;167161.09;;;12.97;95.76
45255;BME280;30989;52.078;21.014;2023-04-09T09:00:05;167139.63;;;12.89;94.78
45255;BME280;30989;52.078;21.014;2023-04-09T09:02:32;167118.16;;;12.81;94.40
45255;BME280;30989;52.078;21.014;2023-04-09T09:04:57;167090.00;;;12.70;94.69
45255;BME280;30989;52.078;21.014;2023-04-09T09:07:29;167083.28;;;12.68;93.86
45255;BME280;30989;52.078;21.014;2023-04-09T09:09:57;167064.53;;;12.61;93.75
45255;BME280;30989;52.078;21.014;2023-04-09T09:12:40;167053.78;;;12.56;93.27
45255;BME280;30989;52.078;21.014;2023-04-09T09:15:25;167060.50;;;12.59;93.74
45255;BME280;30989;52.078;21.014;2023-04-09T09:17:56;167072.56;;;12.64;92.80
45255;BME280;30989;52.078;21.014;2023-04-09T09:20:22;167077.94;;;12.66;93.22
45255;BME280;30989;52.078;21.014;2023-04-09T09:22:50;167122.19;;;12.82;93.81
45255;BME280;30989;52.078;21.014;2023-04-09T09:25:15;167177.19;;;13.03;94.13
45255;BME280;30989;52.078;21.014;2023-04-09T09:27:41;167221.50;;;13.20;92.26
45255;BME280;30989;52.078;21.014;2023-04-09T09:30:07;167255.03;;;13.33;91.52
45255;BME280;30989;52.078;21.014;2023-04-09T09:32:34;167257.72;;;13.34;89.57
45255;BME280;30989;52.078;21.014;2023-04-09T09:35:02;167268.47;;;13.38;90.80
45255;BME280;30989;52.078;21.014;2023-04-09T09:37:29;167283.22;;;13.43;90.87
45255;BME280;30989;52.078;21.014;2023-04-09T09:39:55;167316.75;;;13.56;90.78
45255;BME280;30989;52.078;21.014;2023-04-09T09:42:21;167354.34;;;13.70;90.33
45255;BME280;30989;52.078;21.014;2023-04-09T09:44:46;167389.22;;;13.83;90.30
45255;BME280;30989;52.078;21.014;2023-04-09T09:47:13;167472.44;;;14.15;91.04
45255;BME280;30989;52.078;21.014;2023-04-09T09:49:39;167526.13;;;14.35;86.04
45255;BME280;30989;52.078;21.014;2023-04-09T09:52:10;167563.78;;;14.49;89.13
45255;BME280;30989;52.078;21.014;2023-04-09T09:54:39;167593.31;;;14.61;83.72
45255;BME280;30989;52.078;21.014;2023-04-09T09:57:09;167574.50;;;14.54;85.17
45255;BME280;30989;52.078;21.014;2023-04-09T09:59:40;167602.72;;;14.64;87.52
45255;BME280;30989;52.078;21.014;2023-04-09T10:02:13;167656.41;;;14.84;86.87
45255;BME280;30989;52.078;21.014;2023-04-09T10:04:45;167604.06;;;14.65;81.66
45255;BME280;30989;52.078;21.014;2023-04-09T10:07:15;167516.72;;;14.32;84.46
45255;BME280;30989;52.078;21.014;2023-04-09T10:09:44;167479.16;;;14.17;82.97
45255;BME280;30989;52.078;21.014;2023-04-09T10:12:12;167422.78;;;13.96;84.16
45255;BME280;30989;52.078;21.014;2023-04-09T10:14:38;167404.00;;;13.89;84.13
45255;BME280;30989;52.078;21.014;2023-04-09T10:17:04;167408.00;;;13.91;83.89
45255;BME280;30989;52.078;21.014;2023-04-09T10:19:36;167401.31;;;13.88;84.20
45255;BME280;30989;52.078;21.014;2023-04-09T10:22:15;167422.78;;;13.96;83.78
45255;BME280;30989;52.078;21.014;2023-04-09T10:24:42;167448.28;;;14.06;84.41
45255;BME280;30989;52.078;21.014;2023-04-09T10:27:09;167469.75;;;14.14;82.95
45255;BME280;30989;52.078;21.014;2023-04-09T10:29:41;167468.41;;;14.13;82.32
45255;BME280;30989;52.078;21.014;2023-04-09T10:32:07;167468.41;;;14.13;81.54
45255;BME280;30989;52.078;21.014;2023-04-09T10:34:39;167472.44;;;14.15;81.10
45255;BME280;30989;52.078;21.014;2023-04-09T10:37:07;167496.59;;;14.24;82.61
45255;BME280;30989;52.078;21.014;2023-04-09T10:39:38;167515.41;;;14.31;82.42
45255;BME280;30989;52.078;21.014;2023-04-09T10:42:17;167555.72;;;14.46;82.45
45255;BME280;30989;52.078;21.014;2023-04-09T10:44:43;167543.63;;;14.42;80.48
45255;BME280;30989;52.078;21.014;2023-04-09T10:47:10;167598.69;;;14.63;81.44
45255;BME280;30989;52.078;21.014;2023-04-09T10:49:40;167762.50;;;15.25;80.46
45255;BME280;30989;52.078;21.014;2023-04-09T10:52:10;167915.75;;;15.83;79.86
45255;BME280;30989;52.078;21.014;2023-04-09T10:54:40;168012.50;;;16.19;77.84
45255;BME280;30989;52.078;21.014;2023-04-09T10:57:14;168089.13;;;16.48;75.92
45255;BME280;30989;52.078;21.014;2023-04-09T10:59:51;168121.38;;;16.60;71.74
45255;BME280;30989;52.078;21.014;2023-04-09T11:07:55;168047.44;;;16.32;73.78
45255;BME280;30989;52.078;21.014;2023-04-09T11:10:22;168039.38;;;16.29;73.60
45255;BME280;30989;52.078;21.014;2023-04-09T11:12:48;168035.34;;;16.28;72.94
45255;BME280;30989;52.078;21.014;2023-04-09T11:15:18;168074.34;;;16.42;71.23
45255;BME280;30989;52.078;21.014;2023-04-09T11:17:47;168176.53;;;16.81;71.41
45255;BME280;30989;52.078;21.014;2023-04-09T11:20:18;168331.16;;;17.39;71.40
45255;BME280;30989;52.078;21.014;2023-04-09T11:22:45;168489.94;;;17.99;69.91
45255;BME280;30989;52.078;21.014;2023-04-09T11:25:24;168514.16;;;18.09;69.45
45255;BME280;30989;52.078;21.014;2023-04-09T11:27:51;168477.81;;;17.95;70.05
45255;BME280;30989;52.078;21.014;2023-04-09T11:30:17;168495.31;;;18.01;70.12
45255;BME280;30989;52.078;21.014;2023-04-09T11:32:42;168487.25;;;17.98;69.75
45255;BME280;30989;52.078;21.014;2023-04-09T11:35:12;168440.16;;;17.81;68.51
45255;BME280;30989;52.078;21.014;2023-04-09T11:37:38;168345.97;;;17.45;68.19
45255;BME280;30989;52.078;21.014;2023-04-09T11:40:04;168227.63;;;17.00;68.02
45255;BME280;30989;52.078;21.014;2023-04-09T11:42:30;168071.66;;;16.41;68.54
45255;BME280;30989;52.078;21.014;2023-04-09T11:44:56;167961.44;;;16.00;70.34
45255;BME280;30989;52.078;21.014;2023-04-09T11:47:22;167883.50;;;15.70;71.40
45255;BME280;30989;52.078;21.014;2023-04-09T11:49:48;167813.56;;;15.44;72.13
45255;BME280;30989;52.078;21.014;2023-04-09T11:52:14;167730.28;;;15.12;71.87
45255;BME280;30989;52.078;21.014;2023-04-09T11:54:47;167622.84;;;14.72;72.06
45255;BME280;30989;52.078;21.014;2023-04-09T11:57:14;167550.34;;;14.44;73.44
45255;BME280;30989;52.078;21.014;2023-04-09T11:59:39;167496.59;;;14.24;73.92
45255;BME280;30989;52.078;21.014;2023-04-09T12:02:06;167459.00;;;14.10;74.74
45255;BME280;30989;52.078;21.014;2023-04-09T12:04:32;167426.81;;;13.98;75.30
45255;BME280;30989;52.078;21.014;2023-04-09T12:06:57;167387.88;;;13.83;75.02
45255;BME280;30989;52.078;21.014;2023-04-09T12:09:23;167357.00;;;13.71;75.76
45255;BME280;30989;52.078;21.014;2023-04-09T12:11:49;167338.22;;;13.64;76.32
45255;BME280;30989;52.078;21.014;2023-04-09T12:14:16;167338.22;;;13.64;77.17
45255;BME280;30989;52.078;21.014;2023-04-09T12:16:42;167338.22;;;13.64;77.59
45255;BME280;30989;52.078;21.014;2023-04-09T12:19:11;167355.66;;;13.71;77.81
45255;BME280;30989;52.078;21.014;2023-04-09T12:21:54;167363.72;;;13.74;77.93
45255;BME280;30989;52.078;21.014;2023-04-09T12:24:22;167386.53;;;13.82;77.74
45255;BME280;30989;52.078;21.014;2023-04-09T12:26:48;167418.75;;;13.95;77.27
45255;BME280;30989;52.078;21.014;2023-04-09T12:29:18;167461.69;;;14.11;77.57
45255;BME280;30989;52.078;21.014;2023-04-09T12:31:45;167499.28;;;14.25;77.01
45255;BME280;30989;52.078;21.014;2023-04-09T12:34:11;167569.13;;;14.51;75.87
45255;BME280;30989;52.078;21.014;2023-04-09T12:36:38;167645.66;;;14.80;75.06
45255;BME280;30989;52.078;21.014;2023-04-09T12:39:04;167679.25;;;14.93;74.51
45255;BME280;30989;52.078;21.014;2023-04-09T12:41:30;167698.03;;;15.00;73.66
45255;BME280;30989;52.078;21.014;2023-04-09T12:43:58;167698.03;;;15.00;73.84
45255;BME280;30989;52.078;21.014;2023-04-09T12:46:24;167708.78;;;15.04;74.65
45255;BME280;30989;52.078;21.014;2023-04-09T12:48:50;167719.53;;;15.08;74.12
45255;BME280;30989;52.078;21.014;2023-04-09T12:51:18;167731.63;;;15.13;75.17
45255;BME280;30989;52.078;21.014;2023-04-09T12:53:45;167775.94;;;15.30;74.98